^^
Saratoga-Weather Station Historical Data
Daily Summary for July 21, 2020 Units:  Both    English   Metric
Daily Weekly Monthly Yearly Custom
  High: Low: Average:
Temperature: 80.4 °F /  26.9 °C 49.8 °F /  9.9 °C 63.3 °F /  17.4 °C
Dew Point: 51.8 °F /  11 °C 44.8 °F /  7.1 °C 48 °F /  8.9 °C
Humidity: 83% 33% 60%
Wind Speed: 5mph /  8km/h - 0.5mph /  0.8km/h
Wind Gust: 8mph /  12.9km/h - -
Wind- - SSE
Pressure: 30 in /  1014.9 hPa 29.9 in /  1012.2 hPa -
Precipitation: 0 in /  0.0 mm    
Historical Graphs
 
 
Tabular Data for July 21, 2020
Time Temperature Dew Point Pressure Wind Wind Speed Wind Gust Humidity Rainfall Rate (Hourly) solar
00:02 58.6 °F /  14.8 °C 45.7 °F /  7.6 °C 30in /  1014.2hPa Calm     62% 0in /  0.0mm 0 W/m2
00:07 58.3 °F /  14.6 °C 45.3 °F /  7.4 °C 30in /  1014.2hPa Calm     62% 0in /  0.0mm 0 W/m2
00:12 57.9 °F /  14.4 °C 45.3 °F /  7.4 °C 30in /  1014.2hPa Calm     63% 0in /  0.0mm 0 W/m2
00:17 57.7 °F /  14.3 °C 45.3 °F /  7.4 °C 30in /  1014.2hPa Calm     63% 0in /  0.0mm 0 W/m2
00:22 57.6 °F /  14.2 °C 45.5 °F /  7.5 °C 30in /  1014.2hPa Calm     64% 0in /  0.0mm 0 W/m2
00:27 57.4 °F /  14.1 °C 45.7 °F /  7.6 °C 30in /  1014.6hPa Calm     65% 0in /  0.0mm 0 W/m2
00:32 57.2 °F /  14 °C 45.5 °F /  7.5 °C 30in /  1014.6hPa Calm     65% 0in /  0.0mm 0 W/m2
00:37 56.8 °F /  13.8 °C 45.7 °F /  7.6 °C 30in /  1014.6hPa Calm     66% 0in /  0.0mm 0 W/m2
00:42 56.8 °F /  13.8 °C 45.7 °F /  7.6 °C 30in /  1014.6hPa Calm     66% 0in /  0.0mm 0 W/m2
00:47 56.7 °F /  13.7 °C 45.5 °F /  7.5 °C 30in /  1014.6hPa Calm     66% 0in /  0.0mm 0 W/m2
00:52 56.5 °F /  13.6 °C 45.7 °F /  7.6 °C 30in /  1014.6hPa Calm     67% 0in /  0.0mm 0 W/m2
00:57 56.5 °F /  13.6 °C 45.7 °F /  7.6 °C 30in /  1014.6hPa Calm     67% 0in /  0.0mm 0 W/m2
01:02 56.1 °F /  13.4 °C 45.7 °F /  7.6 °C 30in /  1014.6hPa Calm     68% 0in /  0.0mm 0 W/m2
01:07 55.9 °F /  13.3 °C 45.5 °F /  7.5 °C 30in /  1014.6hPa Calm     68% 0in /  0.0mm 0 W/m2
01:12 55.8 °F /  13.2 °C 45.3 °F /  7.4 °C 30in /  1014.6hPa Calm     68% 0in /  0.0mm 0 W/m2
01:17 55.6 °F /  13.1 °C 45.5 °F /  7.5 °C 30in /  1014.6hPa Calm     69% 0in /  0.0mm 0 W/m2
01:22 55.6 °F /  13.1 °C 45.5 °F /  7.5 °C 30in /  1014.2hPa Calm     69% 0in /  0.0mm 0 W/m2
01:27 55.6 °F /  13.1 °C 45.5 °F /  7.5 °C 30in /  1014.2hPa Calm     69% 0in /  0.0mm 0 W/m2
01:32 55.6 °F /  13.1 °C 46 °F /  7.8 °C 30in /  1014.2hPa Calm     70% 0in /  0.0mm 0 W/m2
01:37 55.2 °F /  12.9 °C 45.7 °F /  7.6 °C 30in /  1014.2hPa Calm     70% 0in /  0.0mm 0 W/m2
01:42 55 °F /  12.8 °C 45.9 °F /  7.7 °C 30in /  1014.2hPa Calm     71% 0in /  0.0mm 0 W/m2
01:47 55 °F /  12.8 °C 45.9 °F /  7.7 °C 30in /  1014.2hPa Calm     71% 0in /  0.0mm 0 W/m2
01:52 54.9 °F /  12.7 °C 45.7 °F /  7.6 °C 30in /  1014.2hPa Calm     71% 0in /  0.0mm 0 W/m2
01:57 54.7 °F /  12.6 °C 45.9 °F /  7.7 °C 30in /  1014.2hPa Calm   1mph /  1.6km/h 72% 0in /  0.0mm 0 W/m2
02:02 54.7 °F /  12.6 °C 45.9 °F /  7.7 °C 30in /  1014.2hPa Calm     72% 0in /  0.0mm 0 W/m2
02:07 54.5 °F /  12.5 °C 45.7 °F /  7.6 °C 30in /  1014.2hPa Calm     72% 0in /  0.0mm 0 W/m2
02:12 54.3 °F /  12.4 °C 45.5 °F /  7.5 °C 30in /  1014.2hPa Calm     72% 0in /  0.0mm 0 W/m2
02:17 54.3 °F /  12.4 °C 45.5 °F /  7.5 °C 30in /  1014.6hPa Calm     72% 0in /  0.0mm 0 W/m2
02:22 54.1 °F /  12.3 °C 45.7 °F /  7.6 °C 30in /  1014.6hPa Calm     73% 0in /  0.0mm 0 W/m2
02:27 54 °F /  12.2 °C 45.5 °F /  7.5 °C 30in /  1014.2hPa Calm   1mph /  1.6km/h 73% 0in /  0.0mm 0 W/m2
02:32 54 °F /  12.2 °C 45.5 °F /  7.5 °C 30in /  1014.6hPa South 0.9mph /  1.4km/h 1mph /  1.6km/h 73% 0in /  0.0mm 0 W/m2
02:37 54 °F /  12.2 °C 45.5 °F /  7.5 °C 30in /  1014.6hPa Calm     73% 0in /  0.0mm 0 W/m2
02:42 54 °F /  12.2 °C 45.5 °F /  7.5 °C 30in /  1014.6hPa Calm     73% 0in /  0.0mm 0 W/m2
02:47 54 °F /  12.2 °C 45.9 °F /  7.7 °C 30in /  1014.6hPa Calm     74% 0in /  0.0mm 0 W/m2
02:52 54 °F /  12.2 °C 45.9 °F /  7.7 °C 30in /  1014.2hPa Calm   1mph /  1.6km/h 74% 0in /  0.0mm 0 W/m2
02:57 54 °F /  12.2 °C 45.9 °F /  7.7 °C 30in /  1014.6hPa Calm     74% 0in /  0.0mm 0 W/m2
03:02 54 °F /  12.2 °C 45.5 °F /  7.5 °C 30in /  1014.2hPa Calm     73% 0in /  0.0mm 0 W/m2
03:07 54.1 °F /  12.3 °C 45.7 °F /  7.6 °C 30in /  1014.2hPa Calm     73% 0in /  0.0mm 0 W/m2
03:12 54 °F /  12.2 °C 45.5 °F /  7.5 °C 30in /  1014.2hPa Calm     73% 0in /  0.0mm 0 W/m2
03:17 54 °F /  12.2 °C 45.5 °F /  7.5 °C 30in /  1014.2hPa Calm     73% 0in /  0.0mm 0 W/m2
03:22 53.8 °F /  12.1 °C 45.7 °F /  7.6 °C 30in /  1014.2hPa Calm     74% 0in /  0.0mm 0 W/m2
03:27 53.6 °F /  12 °C 45.5 °F /  7.5 °C 30in /  1014.2hPa Calm   1mph /  1.6km/h 74% 0in /  0.0mm 0 W/m2
03:32 53.4 °F /  11.9 °C 45.3 °F /  7.4 °C 30in /  1014.2hPa Calm     74% 0in /  0.0mm 0 W/m2
03:37 53.4 °F /  11.9 °C 45.3 °F /  7.4 °C 30in /  1014.2hPa Calm   1mph /  1.6km/h 74% 0in /  0.0mm 0 W/m2
03:42 53.4 °F /  11.9 °C 45.7 °F /  7.6 °C 30in /  1014.2hPa Calm   1mph /  1.6km/h 75% 0in /  0.0mm 0 W/m2
03:47 53.4 °F /  11.9 °C 45.7 °F /  7.6 °C 29.9in /  1013.9hPa Calm   1mph /  1.6km/h 75% 0in /  0.0mm 0 W/m2
03:52 53.2 °F /  11.8 °C 45.1 °F /  7.3 °C 29.9in /  1013.9hPa Calm     74% 0in /  0.0mm 0 W/m2
03:57 53.2 °F /  11.8 °C 45.5 °F /  7.5 °C 29.9in /  1013.9hPa Calm   1mph /  1.6km/h 75% 0in /  0.0mm 0 W/m2
04:02 53.1 °F /  11.7 °C 45.3 °F /  7.4 °C 29.9in /  1013.9hPa Calm     75% 0in /  0.0mm 0 W/m2
04:07 52.9 °F /  11.6 °C 45.1 °F /  7.3 °C 29.9in /  1013.9hPa Calm     75% 0in /  0.0mm 0 W/m2
04:12 52.9 °F /  11.6 °C 45.5 °F /  7.5 °C 29.9in /  1013.9hPa Calm     76% 0in /  0.0mm 0 W/m2
04:17 52.7 °F /  11.5 °C 45.3 °F /  7.4 °C 29.9in /  1013.9hPa Calm   1mph /  1.6km/h 76% 0in /  0.0mm 0 W/m2
04:23 52.5 °F /  11.4 °C 45.1 °F /  7.3 °C 29.9in /  1013.9hPa Calm     76% 0in /  0.0mm 0 W/m2
04:28 52.5 °F /  11.4 °C 45.1 °F /  7.3 °C 29.9in /  1013.9hPa Calm     76% 0in /  0.0mm 0 W/m2
04:33 52.3 °F /  11.3 °C 45.3 °F /  7.4 °C 30in /  1014.2hPa Calm     77% 0in /  0.0mm 0 W/m2
04:38 52.3 °F /  11.3 °C 45.3 °F /  7.4 °C 30in /  1014.2hPa Calm   1mph /  1.6km/h 77% 0in /  0.0mm 0 W/m2
04:43 52.2 °F /  11.2 °C 45.1 °F /  7.3 °C 29.9in /  1013.9hPa Calm     77% 0in /  0.0mm 0 W/m2
04:48 52.2 °F /  11.2 °C 45.1 °F /  7.3 °C 29.9in /  1013.9hPa Calm   1mph /  1.6km/h 77% 0in /  0.0mm 0 W/m2
04:53 52 °F /  11.1 °C 45.3 °F /  7.4 °C 29.9in /  1013.9hPa Calm   2mph /  3.2km/h 78% 0in /  0.0mm 0 W/m2
04:58 52.3 °F /  11.3 °C 45.7 °F /  7.6 °C 30in /  1014.2hPa South 0.9mph /  1.4km/h 2mph /  3.2km/h 78% 0in /  0.0mm 0 W/m2
05:03 52.3 °F /  11.3 °C 45.3 °F /  7.4 °C 29.9in /  1013.9hPa Calm   1mph /  1.6km/h 77% 0in /  0.0mm 0 W/m2
05:08 52.3 °F /  11.3 °C 45.7 °F /  7.6 °C 29.9in /  1013.9hPa Calm   2mph /  3.2km/h 78% 0in /  0.0mm 0 W/m2
05:13 52.3 °F /  11.3 °C 45.3 °F /  7.4 °C 29.9in /  1013.9hPa Calm     77% 0in /  0.0mm 0 W/m2
05:18 52.3 °F /  11.3 °C 45.3 °F /  7.4 °C 29.9in /  1013.9hPa Calm   1mph /  1.6km/h 77% 0in /  0.0mm 0 W/m2
05:23 52.3 °F /  11.3 °C 45.3 °F /  7.4 °C 29.9in /  1013.9hPa Calm   1mph /  1.6km/h 77% 0in /  0.0mm 0 W/m2
05:28 52.3 °F /  11.3 °C 45.3 °F /  7.4 °C 29.9in /  1013.9hPa Calm     77% 0in /  0.0mm 0 W/m2
05:33 52.3 °F /  11.3 °C 45.7 °F /  7.6 °C 29.9in /  1013.9hPa Calm     78% 0in /  0.0mm 0 W/m2
05:38 52.2 °F /  11.2 °C 45.5 °F /  7.5 °C 30in /  1014.2hPa Calm     78% 0in /  0.0mm 0 W/m2
05:43 52 °F /  11.1 °C 45.3 °F /  7.4 °C 30in /  1014.2hPa South 0.9mph /  1.4km/h 2mph /  3.2km/h 78% 0in /  0.0mm 0 W/m2
05:48 52 °F /  11.1 °C 45.3 °F /  7.4 °C 30in /  1014.2hPa Calm     78% 0in /  0.0mm 0 W/m2
05:53 52 °F /  11.1 °C 45.3 °F /  7.4 °C 30in /  1014.2hPa Calm     78% 0in /  0.0mm 0 W/m2
05:58 51.6 °F /  10.9 °C 45.3 °F /  7.4 °C 30in /  1014.2hPa Calm     79% 0in /  0.0mm 0 W/m2
06:03 51.6 °F /  10.9 °C 45.3 °F /  7.4 °C 30in /  1014.2hPa Calm     79% 0in /  0.0mm 0 W/m2
06:08 51.4 °F /  10.8 °C 45.1 °F /  7.3 °C 30in /  1014.2hPa Calm     79% 0in /  0.0mm 0 W/m2
06:13 51.3 °F /  10.7 °C 45 °F /  7.2 °C 30in /  1014.2hPa Calm     79% 0in /  0.0mm 0 W/m2
06:18 51.1 °F /  10.6 °C 44.8 °F /  7.1 °C 30in /  1014.2hPa Calm     79% 0in /  0.0mm 0 W/m2
06:23 51.1 °F /  10.6 °C 45.1 °F /  7.3 °C 30in /  1014.2hPa Calm     80% 0in /  0.0mm 0 W/m2
06:28 50.9 °F /  10.5 °C 45 °F /  7.2 °C 30in /  1014.2hPa Calm     80% 0in /  0.0mm 0 W/m2
06:33 50.7 °F /  10.4 °C 44.8 °F /  7.1 °C 30in /  1014.2hPa Calm   1mph /  1.6km/h 80% 0in /  0.0mm 0 W/m2
06:38 50.5 °F /  10.3 °C 45 °F /  7.2 °C 30in /  1014.2hPa Calm   1mph /  1.6km/h 81% 0in /  0.0mm 0 W/m2
06:43 50.5 °F /  10.3 °C 45 °F /  7.2 °C 30in /  1014.2hPa Calm     81% 0in /  0.0mm 0 W/m2
06:48 50.4 °F /  10.2 °C 44.8 °F /  7.1 °C 30in /  1014.2hPa Calm   1mph /  1.6km/h 81% 0in /  0.0mm 0 W/m2
06:53 50.4 °F /  10.2 °C 44.8 °F /  7.1 °C 30in /  1014.2hPa Calm   1mph /  1.6km/h 81% 0in /  0.0mm 0 W/m2
06:58 50.4 °F /  10.2 °C 44.8 °F /  7.1 °C 30in /  1014.2hPa South 0.9mph /  1.4km/h 1mph /  1.6km/h 81% 0in /  0.0mm 0 W/m2
07:03 50.4 °F /  10.2 °C 44.8 °F /  7.1 °C 30in /  1014.2hPa Calm     81% 0in /  0.0mm 0 W/m2
07:08 50.4 °F /  10.2 °C 45.1 °F /  7.3 °C 30in /  1014.2hPa South 0.9mph /  1.4km/h 1mph /  1.6km/h 82% 0in /  0.0mm 0 W/m2
07:13 50.2 °F /  10.1 °C 45 °F /  7.2 °C 30in /  1014.2hPa South 0.9mph /  1.4km/h 2mph /  3.2km/h 82% 0in /  0.0mm 0 W/m2
07:18 50.2 °F /  10.1 °C 45 °F /  7.2 °C 30in /  1014.2hPa Calm     82% 0in /  0.0mm 0 W/m2
07:23 50.2 °F /  10.1 °C 45 °F /  7.2 °C 30in /  1014.6hPa Calm     82% 0in /  0.0mm 0 W/m2
07:28 50.2 °F /  10.1 °C 45 °F /  7.2 °C 30in /  1014.6hPa Calm     82% 0in /  0.0mm 7 W/m2
07:33 50 °F /  10 °C 44.8 °F /  7.1 °C 30in /  1014.6hPa Calm     82% 0in /  0.0mm 9 W/m2
07:38 50 °F /  10 °C 44.8 °F /  7.1 °C 30in /  1014.6hPa Calm     82% 0in /  0.0mm 11 W/m2
07:43 50 °F /  10 °C 44.8 °F /  7.1 °C 30in /  1014.6hPa Calm     82% 0in /  0.0mm 12 W/m2
07:48 49.8 °F /  9.9 °C 44.8 °F /  7.1 °C 30in /  1014.6hPa Calm     83% 0in /  0.0mm 14 W/m2
07:53 49.8 °F /  9.9 °C 44.8 °F /  7.1 °C 30in /  1014.6hPa Calm     83% 0in /  0.0mm 14 W/m2
07:58 49.8 °F /  9.9 °C 44.8 °F /  7.1 °C 30in /  1014.6hPa Calm     83% 0in /  0.0mm 16 W/m2
08:03 49.8 °F /  9.9 °C 44.8 °F /  7.1 °C 30in /  1014.6hPa Calm     83% 0in /  0.0mm 18 W/m2
08:08 50 °F /  10 °C 45 °F /  7.2 °C 30in /  1014.6hPa Calm     83% 0in /  0.0mm 19 W/m2
08:13 50.2 °F /  10.1 °C 45.1 °F /  7.3 °C 30in /  1014.6hPa Calm     83% 0in /  0.0mm 21 W/m2
08:18 50.2 °F /  10.1 °C 45.1 °F /  7.3 °C 30in /  1014.9hPa Calm     83% 0in /  0.0mm 21 W/m2
08:23 50.4 °F /  10.2 °C 45.3 °F /  7.4 °C 30in /  1014.9hPa Calm     83% 0in /  0.0mm 23 W/m2
08:28 50.5 °F /  10.3 °C 45.5 °F /  7.5 °C 30in /  1014.9hPa Calm     83% 0in /  0.0mm 30 W/m2
08:33 50.7 °F /  10.4 °C 45.7 °F /  7.6 °C 30in /  1014.9hPa Calm     83% 0in /  0.0mm 44 W/m2
08:38 50.9 °F /  10.5 °C 45.9 °F /  7.7 °C 30in /  1014.9hPa Calm     83% 0in /  0.0mm 26 W/m2
08:43 51.3 °F /  10.7 °C 46.2 °F /  7.9 °C 30in /  1014.9hPa Calm     83% 0in /  0.0mm 26 W/m2
08:48 51.4 °F /  10.8 °C 46.2 °F /  7.9 °C 30in /  1014.9hPa Calm     82% 0in /  0.0mm 26 W/m2
08:53 51.8 °F /  11 °C 46.4 °F /  8 °C 30in /  1014.9hPa Calm     82% 0in /  0.0mm 30 W/m2
08:58 52.2 °F /  11.2 °C 46.8 °F /  8.2 °C 30in /  1014.9hPa Calm     82% 0in /  0.0mm 28 W/m2
09:03 52.5 °F /  11.4 °C 47.1 °F /  8.4 °C 30in /  1014.9hPa Calm     82% 0in /  0.0mm 30 W/m2
09:08 53.2 °F /  11.8 °C 47.8 °F /  8.8 °C 30in /  1014.9hPa Calm     82% 0in /  0.0mm 156 W/m2
09:13 53.8 °F /  12.1 °C 48 °F /  8.9 °C 30in /  1014.9hPa Calm     81% 0in /  0.0mm 47 W/m2
09:18 54.7 °F /  12.6 °C 48.4 °F /  9.1 °C 30in /  1014.9hPa Calm     79% 0in /  0.0mm 33 W/m2
09:23 55.8 °F /  13.2 °C 47.7 °F /  8.7 °C 30in /  1014.9hPa Calm   2mph /  3.2km/h 74% 0in /  0.0mm 35 W/m2
09:28 56.8 °F /  13.8 °C 47.8 °F /  8.8 °C 30in /  1014.9hPa East 0.9mph /  1.4km/h 1mph /  1.6km/h 72% 0in /  0.0mm 35 W/m2
09:33 57.7 °F /  14.3 °C 47.7 °F /  8.7 °C 30in /  1014.9hPa East 2mph /  3.2km/h 2mph /  3.2km/h 69% 0in /  0.0mm 35 W/m2
09:38 58.6 °F /  14.8 °C 47.7 °F /  8.7 °C 30in /  1014.9hPa Calm   2mph /  3.2km/h 67% 0in /  0.0mm 35 W/m2
09:43 59.5 °F /  15.3 °C 47.8 °F /  8.8 °C 30in /  1014.9hPa Calm   3mph /  4.8km/h 65% 0in /  0.0mm 37 W/m2
09:48 60.1 °F /  15.6 °C 48.2 °F /  9 °C 30in /  1014.9hPa Calm     65% 0in /  0.0mm 37 W/m2
09:53 60.6 °F /  15.9 °C 48 °F /  8.9 °C 30in /  1014.9hPa East 0.9mph /  1.4km/h 4mph /  6.4km/h 63% 0in /  0.0mm 37 W/m2
09:58 61 °F /  16.1 °C 48.4 °F /  9.1 °C 30in /  1014.9hPa ENE 2mph /  3.2km/h 2mph /  3.2km/h 63% 0in /  0.0mm 37 W/m2
10:03 61.2 °F /  16.2 °C 48 °F /  8.9 °C 30in /  1014.9hPa East 2.9mph /  4.7km/h 4mph /  6.4km/h 62% 0in /  0.0mm 39 W/m2
10:08 61.3 °F /  16.3 °C 47.8 °F /  8.8 °C 30in /  1014.9hPa East 2mph /  3.2km/h 2mph /  3.2km/h 61% 0in /  0.0mm 39 W/m2
10:13 61.7 °F /  16.5 °C 48.2 °F /  9 °C 30in /  1014.9hPa ENE 4mph /  6.4km/h 4mph /  6.4km/h 61% 0in /  0.0mm 39 W/m2
10:18 61.9 °F /  16.6 °C 47.8 °F /  8.8 °C 30in /  1014.9hPa East 0.9mph /  1.4km/h 3mph /  4.8km/h 60% 0in /  0.0mm 40 W/m2
10:23 62.4 °F /  16.9 °C 48.4 °F /  9.1 °C 30in /  1014.9hPa ESE 0.9mph /  1.4km/h 1mph /  1.6km/h 60% 0in /  0.0mm 40 W/m2
10:28 63 °F /  17.2 °C 48.4 °F /  9.1 °C 30in /  1014.9hPa ENE 0.9mph /  1.4km/h 3mph /  4.8km/h 59% 0in /  0.0mm 42 W/m2
10:33 63.3 °F /  17.4 °C 48.4 °F /  9.1 °C 30in /  1014.9hPa ENE 2mph /  3.2km/h 3mph /  4.8km/h 58% 0in /  0.0mm 42 W/m2
10:38 63.3 °F /  17.4 °C 48.4 °F /  9.1 °C 30in /  1014.9hPa NE 0.9mph /  1.4km/h 2mph /  3.2km/h 58% 0in /  0.0mm 44 W/m2
10:43 63.5 °F /  17.5 °C 48.4 °F /  9.1 °C 30in /  1014.9hPa East 0.9mph /  1.4km/h 1mph /  1.6km/h 58% 0in /  0.0mm 46 W/m2
10:48 63.9 °F /  17.7 °C 48.4 °F /  9.1 °C 30in /  1014.9hPa Calm   2mph /  3.2km/h 57% 0in /  0.0mm 46 W/m2
10:53 64.2 °F /  17.9 °C 49.1 °F /  9.5 °C 30in /  1014.9hPa Calm   1mph /  1.6km/h 58% 0in /  0.0mm 46 W/m2
10:58 64.8 °F /  18.2 °C 48.7 °F /  9.3 °C 30in /  1014.9hPa Calm   3mph /  4.8km/h 56% 0in /  0.0mm 46 W/m2
11:03 65.1 °F /  18.4 °C 48.6 °F /  9.2 °C 30in /  1014.9hPa ESE 2mph /  3.2km/h 2mph /  3.2km/h 55% 0in /  0.0mm 47 W/m2
11:08 65.1 °F /  18.4 °C 48 °F /  8.9 °C 30in /  1014.9hPa ESE 0.9mph /  1.4km/h 3mph /  4.8km/h 54% 0in /  0.0mm 47 W/m2
11:13 65.7 °F /  18.7 °C 48.6 °F /  9.2 °C 30in /  1014.9hPa ESE 2mph /  3.2km/h 2mph /  3.2km/h 54% 0in /  0.0mm 49 W/m2
11:18 66 °F /  18.9 °C 48.9 °F /  9.4 °C 30in /  1014.9hPa ENE 0.9mph /  1.4km/h 4mph /  6.4km/h 54% 0in /  0.0mm 51 W/m2
11:23 66.6 °F /  19.2 °C 49.5 °F /  9.7 °C 30in /  1014.9hPa ESE 2mph /  3.2km/h 3mph /  4.8km/h 54% 0in /  0.0mm 53 W/m2
11:28 67.3 °F /  19.6 °C 49.6 °F /  9.8 °C 30in /  1014.6hPa East 2.9mph /  4.7km/h 4mph /  6.4km/h 53% 0in /  0.0mm 54 W/m2
11:33 67.5 °F /  19.7 °C 49.3 °F /  9.6 °C 30in /  1014.6hPa Calm   2mph /  3.2km/h 52% 0in /  0.0mm 56 W/m2
11:38 68 °F /  20 °C 49.3 °F /  9.6 °C 30in /  1014.6hPa East 2mph /  3.2km/h 3mph /  4.8km/h 51% 0in /  0.0mm 250 W/m2
11:43 68.5 °F /  20.3 °C 49.6 °F /  9.8 °C 30in /  1014.6hPa Calm   2mph /  3.2km/h 51% 0in /  0.0mm 547 W/m2
11:48 68.9 °F /  20.5 °C 49.5 °F /  9.7 °C 30in /  1014.6hPa NNE 0.9mph /  1.4km/h 3mph /  4.8km/h 50% 0in /  0.0mm 561 W/m2
11:53 69.4 °F /  20.8 °C 50 °F /  10 °C 30in /  1014.6hPa SE 0.9mph /  1.4km/h 2mph /  3.2km/h 50% 0in /  0.0mm 568 W/m2
11:58 70.2 °F /  21.2 °C 49.6 °F /  9.8 °C 30in /  1014.6hPa ENE 0.9mph /  1.4km/h 3mph /  4.8km/h 48% 0in /  0.0mm 577 W/m2
12:03 70.5 °F /  21.4 °C 49.8 °F /  9.9 °C 30in /  1014.6hPa ENE 2mph /  3.2km/h 4mph /  6.4km/h 48% 0in /  0.0mm 582 W/m2
12:08 71.1 °F /  21.7 °C 50.4 °F /  10.2 °C 30in /  1014.6hPa ENE 2mph /  3.2km/h 2mph /  3.2km/h 48% 0in /  0.0mm 591 W/m2
12:13 71.1 °F /  21.7 °C 49.8 °F /  9.9 °C 30in /  1014.2hPa ENE 0.9mph /  1.4km/h 3mph /  4.8km/h 47% 0in /  0.0mm 599 W/m2
12:18 71.2 °F /  21.8 °C 50.5 °F /  10.3 °C 30in /  1014.2hPa Calm   2mph /  3.2km/h 48% 0in /  0.0mm 606 W/m2
12:23 71.8 °F /  22.1 °C 49.8 °F /  9.9 °C 30in /  1014.2hPa SE 0.9mph /  1.4km/h 2mph /  3.2km/h 46% 0in /  0.0mm 613 W/m2
12:28 72.5 °F /  22.5 °C 50.5 °F /  10.3 °C 30in /  1014.2hPa East 0.9mph /  1.4km/h 4mph /  6.4km/h 46% 0in /  0.0mm 617 W/m2
12:33 73 °F /  22.8 °C 50.4 °F /  10.2 °C 30in /  1014.2hPa Calm   1mph /  1.6km/h 45% 0in /  0.0mm 622 W/m2
12:38 73.6 °F /  23.1 °C 50.9 °F /  10.5 °C 30in /  1014.2hPa ENE 0.9mph /  1.4km/h 4mph /  6.4km/h 45% 0in /  0.0mm 626 W/m2
12:43 74.1 °F /  23.4 °C 50.9 °F /  10.5 °C 30in /  1014.2hPa ENE 0.9mph /  1.4km/h 4mph /  6.4km/h 44% 0in /  0.0mm 633 W/m2
12:48 74.7 °F /  23.7 °C 50.7 °F /  10.4 °C 30in /  1014.2hPa ENE 2.9mph /  4.7km/h 4mph /  6.4km/h 43% 0in /  0.0mm 636 W/m2
12:53 74.7 °F /  23.7 °C 50 °F /  10 °C 30in /  1014.2hPa WNW 0.9mph /  1.4km/h 2mph /  3.2km/h 42% 0in /  0.0mm 642 W/m2
12:58 74.8 °F /  23.8 °C 50.9 °F /  10.5 °C 30in /  1014.2hPa ESE 4mph /  6.4km/h 4mph /  6.4km/h 43% 0in /  0.0mm 643 W/m2
13:03 75 °F /  23.9 °C 51.1 °F /  10.6 °C 30in /  1014.2hPa Calm   2mph /  3.2km/h 43% 0in /  0.0mm 647 W/m2
13:08 75.6 °F /  24.2 °C 50.9 °F /  10.5 °C 30in /  1014.2hPa Calm   2mph /  3.2km/h 42% 0in /  0.0mm 645 W/m2
13:13 75.6 °F /  24.2 °C 50.2 °F /  10.1 °C 30in /  1014.2hPa NNE 4mph /  6.4km/h 5mph /  8km/h 41% 0in /  0.0mm 645 W/m2
13:18 75.4 °F /  24.1 °C 50 °F /  10 °C 30in /  1014.2hPa Calm   3mph /  4.8km/h 41% 0in /  0.0mm 645 W/m2
13:23 75.4 °F /  24.1 °C 50 °F /  10 °C 30in /  1014.2hPa North 5mph /  8km/h 5mph /  8km/h 41% 0in /  0.0mm 642 W/m2
13:28 75.6 °F /  24.2 °C 50.2 °F /  10.1 °C 29.9in /  1013.9hPa Calm   1mph /  1.6km/h 41% 0in /  0.0mm 649 W/m2
13:33 75.9 °F /  24.4 °C 50.5 °F /  10.3 °C 29.9in /  1013.9hPa Calm   1mph /  1.6km/h 41% 0in /  0.0mm 656 W/m2
13:38 76.5 °F /  24.7 °C 51.1 °F /  10.6 °C 29.9in /  1013.9hPa NE 0.9mph /  1.4km/h 3mph /  4.8km/h 41% 0in /  0.0mm 661 W/m2
13:44 76.5 °F /  24.7 °C 51.1 °F /  10.6 °C 29.9in /  1013.9hPa SSE 0.9mph /  1.4km/h 3mph /  4.8km/h 41% 0in /  0.0mm 654 W/m2
13:49 76.5 °F /  24.7 °C 50.4 °F /  10.2 °C 29.9in /  1013.9hPa Calm   1mph /  1.6km/h 40% 0in /  0.0mm 654 W/m2
13:54 76.8 °F /  24.9 °C 50.7 °F /  10.4 °C 29.9in /  1013.5hPa SE 2mph /  3.2km/h 3mph /  4.8km/h 40% 0in /  0.0mm 654 W/m2
13:59 76.8 °F /  24.9 °C 51.3 °F /  10.7 °C 29.9in /  1013.5hPa ESE 0.9mph /  1.4km/h 3mph /  4.8km/h 41% 0in /  0.0mm 649 W/m2
14:04 76.6 °F /  24.8 °C 50.5 °F /  10.3 °C 29.9in /  1013.9hPa East 2mph /  3.2km/h 8mph /  12.9km/h 40% 0in /  0.0mm 645 W/m2
14:09 76.6 °F /  24.8 °C 50.5 °F /  10.3 °C 29.9in /  1013.5hPa Calm   3mph /  4.8km/h 40% 0in /  0.0mm 642 W/m2
14:14 76.6 °F /  24.8 °C 50.5 °F /  10.3 °C 29.9in /  1013.5hPa East 2mph /  3.2km/h 8mph /  12.9km/h 40% 0in /  0.0mm 640 W/m2
14:19 76.8 °F /  24.9 °C 50.7 °F /  10.4 °C 29.9in /  1013.5hPa ESE 2.9mph /  4.7km/h 4mph /  6.4km/h 40% 0in /  0.0mm 640 W/m2
14:24 76.8 °F /  24.9 °C 50.7 °F /  10.4 °C 29.9in /  1013.5hPa WSW 2mph /  3.2km/h 3mph /  4.8km/h 40% 0in /  0.0mm 635 W/m2
14:29 76.6 °F /  24.8 °C 51.3 °F /  10.7 °C 29.9in /  1013.5hPa Calm   4mph /  6.4km/h 41% 0in /  0.0mm 635 W/m2
14:34 76.8 °F /  24.9 °C 51.3 °F /  10.7 °C 29.9in /  1013.5hPa SSW 2mph /  3.2km/h 2mph /  3.2km/h 41% 0in /  0.0mm 633 W/m2
14:39 77 °F /  25 °C 51.4 °F /  10.8 °C 29.9in /  1013.5hPa NE 2mph /  3.2km/h 4mph /  6.4km/h 41% 0in /  0.0mm 629 W/m2
14:44 77.4 °F /  25.2 °C 50.5 °F /  10.3 °C 29.9in /  1013.5hPa Calm   1mph /  1.6km/h 39% 0in /  0.0mm 624 W/m2
14:49 77.4 °F /  25.2 °C 51.8 °F /  11 °C 29.9in /  1013.2hPa South 0.9mph /  1.4km/h 2mph /  3.2km/h 41% 0in /  0.0mm 619 W/m2
14:54 77.4 °F /  25.2 °C 51.1 °F /  10.6 °C 29.9in /  1013.2hPa South 0.9mph /  1.4km/h 1mph /  1.6km/h 40% 0in /  0.0mm 615 W/m2
14:59 77.5 °F /  25.3 °C 50.5 °F /  10.3 °C 29.9in /  1013.2hPa NE 2mph /  3.2km/h 2mph /  3.2km/h 39% 0in /  0.0mm 612 W/m2
15:04 77.5 °F /  25.3 °C 51.3 °F /  10.7 °C 29.9in /  1013.2hPa ESE 0.9mph /  1.4km/h 3mph /  4.8km/h 40% 0in /  0.0mm 603 W/m2
15:09 77.7 °F /  25.4 °C 50.7 °F /  10.4 °C 29.9in /  1013.2hPa NW 2mph /  3.2km/h 3mph /  4.8km/h 39% 0in /  0.0mm 596 W/m2
15:14 77.9 °F /  25.5 °C 51.6 °F /  10.9 °C 29.9in /  1013.2hPa SE 2mph /  3.2km/h 3mph /  4.8km/h 40% 0in /  0.0mm 591 W/m2
15:19 78.3 °F /  25.7 °C 50.5 °F /  10.3 °C 29.9in /  1013.2hPa SE 2.9mph /  4.7km/h 3mph /  4.8km/h 38% 0in /  0.0mm 584 W/m2
15:24 78.1 °F /  25.6 °C 51.1 °F /  10.6 °C 29.9in /  1013.2hPa WNW 2mph /  3.2km/h 3mph /  4.8km/h 39% 0in /  0.0mm 577 W/m2
15:29 77.7 °F /  25.4 °C 50 °F /  10 °C 29.9in /  1013.2hPa WNW 0.9mph /  1.4km/h 2mph /  3.2km/h 38% 0in /  0.0mm 573 W/m2
15:34 78.1 °F /  25.6 °C 51.1 °F /  10.6 °C 29.9in /  1013.2hPa WNW 0.9mph /  1.4km/h 2mph /  3.2km/h 39% 0in /  0.0mm 564 W/m2
15:39 78.4 °F /  25.8 °C 50 °F /  10 °C 29.9in /  1012.9hPa NE 2mph /  3.2km/h 4mph /  6.4km/h 37% 0in /  0.0mm 554 W/m2
15:44 78.8 °F /  26 °C 50.4 °F /  10.2 °C 29.9in /  1012.9hPa Calm   4mph /  6.4km/h 37% 0in /  0.0mm 548 W/m2
15:49 79.2 °F /  26.2 °C 49.1 °F /  9.5 °C 29.9in /  1012.9hPa Calm   4mph /  6.4km/h 35% 0in /  0.0mm 540 W/m2
15:54 79.2 °F /  26.2 °C 50.7 °F /  10.4 °C 29.9in /  1012.9hPa East 0.9mph /  1.4km/h 2mph /  3.2km/h 37% 0in /  0.0mm 533 W/m2
15:59 79.2 °F /  26.2 °C 49.8 °F /  9.9 °C 29.9in /  1012.9hPa Calm   2mph /  3.2km/h 36% 0in /  0.0mm 526 W/m2
16:04 79.2 °F /  26.2 °C 50.7 °F /  10.4 °C 29.9in /  1012.9hPa Calm   2mph /  3.2km/h 37% 0in /  0.0mm 515 W/m2
16:09 79.2 °F /  26.2 °C 49.1 °F /  9.5 °C 29.9in /  1012.9hPa NW 2mph /  3.2km/h 6mph /  9.7km/h 35% 0in /  0.0mm 504 W/m2
16:14 79.2 °F /  26.2 °C 49.1 °F /  9.5 °C 29.9in /  1012.9hPa South 0.9mph /  1.4km/h 4mph /  6.4km/h 35% 0in /  0.0mm 499 W/m2
16:19 79.2 °F /  26.2 °C 49.8 °F /  9.9 °C 29.9in /  1012.9hPa WSW 2mph /  3.2km/h 2mph /  3.2km/h 36% 0in /  0.0mm 492 W/m2
16:24 79.3 °F /  26.3 °C 50 °F /  10 °C 29.9in /  1012.9hPa West 2mph /  3.2km/h 4mph /  6.4km/h 36% 0in /  0.0mm 480 W/m2
16:29 79.3 °F /  26.3 °C 49.3 °F /  9.6 °C 29.9in /  1012.9hPa NW 2mph /  3.2km/h 4mph /  6.4km/h 35% 0in /  0.0mm 468 W/m2
16:34 79.3 °F /  26.3 °C 49.3 °F /  9.6 °C 29.9in /  1012.9hPa WNW 0.9mph /  1.4km/h 3mph /  4.8km/h 35% 0in /  0.0mm 455 W/m2
16:39 79.7 °F /  26.5 °C 50.4 °F /  10.2 °C 29.9in /  1012.9hPa ENE 4mph /  6.4km/h 4mph /  6.4km/h 36% 0in /  0.0mm 445 W/m2
16:44 79.9 °F /  26.6 °C 48.2 °F /  9 °C 29.9in /  1012.9hPa WSW 2mph /  3.2km/h 6mph /  9.7km/h 33% 0in /  0.0mm 434 W/m2
16:49 79.5 °F /  26.4 °C 49.5 °F /  9.7 °C 29.9in /  1012.9hPa Calm   2mph /  3.2km/h 35% 0in /  0.0mm 422 W/m2
16:54 79.7 °F /  26.5 °C 48.9 °F /  9.4 °C 29.9in /  1012.5hPa NW 2mph /  3.2km/h 3mph /  4.8km/h 34% 0in /  0.0mm 413 W/m2
16:59 79.7 °F /  26.5 °C 48.9 °F /  9.4 °C 29.9in /  1012.5hPa East 0.9mph /  1.4km/h 3mph /  4.8km/h 34% 0in /  0.0mm 364 W/m2
17:04 79.9 °F /  26.6 °C 48.9 °F /  9.4 °C 29.9in /  1012.5hPa Calm   1mph /  1.6km/h 34% 0in /  0.0mm 357 W/m2
17:09 80.4 °F /  26.9 °C 50.2 °F /  10.1 °C 29.9in /  1012.5hPa Calm     35% 0in /  0.0mm 374 W/m2
17:14 80.2 °F /  26.8 °C 50.2 °F /  10.1 °C 29.9in /  1012.5hPa NE 2.9mph /  4.7km/h 6mph /  9.7km/h 35% 0in /  0.0mm 362 W/m2
17:19 80.1 °F /  26.7 °C 50 °F /  10 °C 29.9in /  1012.5hPa SE 0.9mph /  1.4km/h 2mph /  3.2km/h 35% 0in /  0.0mm 346 W/m2
17:24 79.9 °F /  26.6 °C 48.9 °F /  9.4 °C 29.9in /  1012.5hPa SE 0.9mph /  1.4km/h 4mph /  6.4km/h 34% 0in /  0.0mm 334 W/m2
17:29 79.3 °F /  26.3 °C 49.3 °F /  9.6 °C 29.9in /  1012.5hPa East 2mph /  3.2km/h 3mph /  4.8km/h 35% 0in /  0.0mm 318 W/m2
17:34 79.3 °F /  26.3 °C 50.7 °F /  10.4 °C 29.9in /  1012.5hPa South 2mph /  3.2km/h 4mph /  6.4km/h 37% 0in /  0.0mm 306 W/m2
17:39 79.3 °F /  26.3 °C 50 °F /  10 °C 29.9in /  1012.5hPa Calm   1mph /  1.6km/h 36% 0in /  0.0mm 292 W/m2
17:44 79.5 °F /  26.4 °C 50.9 °F /  10.5 °C 29.9in /  1012.5hPa Calm   2mph /  3.2km/h 37% 0in /  0.0mm 276 W/m2
17:49 79.5 °F /  26.4 °C 50.2 °F /  10.1 °C 29.9in /  1012.5hPa SSE 0.9mph /  1.4km/h 2mph /  3.2km/h 36% 0in /  0.0mm 262 W/m2
17:54 79.2 °F /  26.2 °C 51.4 °F /  10.8 °C 29.9in /  1012.2hPa Calm   1mph /  1.6km/h 38% 0in /  0.0mm 246 W/m2
17:59 78.6 °F /  25.9 °C 50.9 °F /  10.5 °C 29.9in /  1012.2hPa Calm   2mph /  3.2km/h 38% 0in /  0.0mm 230 W/m2
18:04 78.3 °F /  25.7 °C 50.5 °F /  10.3 °C 29.9in /  1012.2hPa East 0.9mph /  1.4km/h 1mph /  1.6km/h 38% 0in /  0.0mm 54 W/m2
18:09 77.7 °F /  25.4 °C 50 °F /  10 °C 29.9in /  1012.2hPa SW 0.9mph /  1.4km/h 2mph /  3.2km/h 38% 0in /  0.0mm 200 W/m2
18:14 77.5 °F /  25.3 °C 50 °F /  10 °C 29.9in /  1012.2hPa SSW 0.9mph /  1.4km/h 2mph /  3.2km/h 38% 0in /  0.0mm 186 W/m2
18:19 77.2 °F /  25.1 °C 51.6 °F /  10.9 °C 29.9in /  1012.2hPa Calm   1mph /  1.6km/h 41% 0in /  0.0mm 172 W/m2
18:24 77.4 °F /  25.2 °C 51.8 °F /  11 °C 29.9in /  1012.2hPa SSW 0.9mph /  1.4km/h 1mph /  1.6km/h 41% 0in /  0.0mm 158 W/m2
18:29 77.2 °F /  25.1 °C 51.1 °F /  10.6 °C 29.9in /  1012.2hPa SSW 0.9mph /  1.4km/h 1mph /  1.6km/h 40% 0in /  0.0mm 121 W/m2
18:34 76.6 °F /  24.8 °C 51.3 °F /  10.7 °C 29.9in /  1012.2hPa SSW 0.9mph /  1.4km/h 2mph /  3.2km/h 41% 0in /  0.0mm 86 W/m2
18:39 75.9 °F /  24.4 °C 51.3 °F /  10.7 °C 29.9in /  1012.2hPa SSW 0.9mph /  1.4km/h 2mph /  3.2km/h 42% 0in /  0.0mm 33 W/m2
18:44 75.4 °F /  24.1 °C 51.3 °F /  10.7 °C 29.9in /  1012.2hPa SSW 0.9mph /  1.4km/h 2mph /  3.2km/h 43% 0in /  0.0mm 30 W/m2
18:49 74.8 °F /  23.8 °C 51.4 °F /  10.8 °C 29.9in /  1012.2hPa SSW 0.9mph /  1.4km/h 2mph /  3.2km/h 44% 0in /  0.0mm 26 W/m2
18:54 73.9 °F /  23.3 °C 51.3 °F /  10.7 °C 29.9in /  1012.2hPa SSW 0.9mph /  1.4km/h 2mph /  3.2km/h 45% 0in /  0.0mm 25 W/m2
18:59 73.2 °F /  22.9 °C 50.5 °F /  10.3 °C 29.9in /  1012.2hPa SSW 2mph /  3.2km/h 2mph /  3.2km/h 45% 0in /  0.0mm 23 W/m2
19:04 72.7 °F /  22.6 °C 50.7 °F /  10.4 °C 29.9in /  1012.2hPa SSW 2mph /  3.2km/h 2mph /  3.2km/h 46% 0in /  0.0mm 21 W/m2
19:09 72 °F /  22.2 °C 50 °F /  10 °C 29.9in /  1012.2hPa SSW 0.9mph /  1.4km/h 2mph /  3.2km/h 46% 0in /  0.0mm 19 W/m2
19:14 71.4 °F /  21.9 °C 50.2 °F /  10.1 °C 29.9in /  1012.2hPa SSW 2mph /  3.2km/h 2mph /  3.2km/h 47% 0in /  0.0mm 16 W/m2
19:19 70.9 °F /  21.6 °C 50.2 °F /  10.1 °C 29.9in /  1012.2hPa Calm   2mph /  3.2km/h 48% 0in /  0.0mm 12 W/m2
19:24 70.3 °F /  21.3 °C 50.4 °F /  10.2 °C 29.9in /  1012.2hPa SSW 0.9mph /  1.4km/h 2mph /  3.2km/h 49% 0in /  0.0mm 11 W/m2
19:29 69.6 °F /  20.9 °C 49.6 °F /  9.8 °C 29.9in /  1012.2hPa SSW 2mph /  3.2km/h 2mph /  3.2km/h 49% 0in /  0.0mm 7 W/m2
19:34 69.4 °F /  20.8 °C 50 °F /  10 °C 29.9in /  1012.2hPa Calm     50% 0in /  0.0mm 5 W/m2
19:39 69.1 °F /  20.6 °C 50.2 °F /  10.1 °C 29.9in /  1012.2hPa Calm   2mph /  3.2km/h 51% 0in /  0.0mm 0 W/m2
19:44 68.5 °F /  20.3 °C 49.6 °F /  9.8 °C 29.9in /  1012.2hPa Calm     51% 0in /  0.0mm 0 W/m2
19:49 68.4 °F /  20.2 °C 49.5 °F /  9.7 °C 29.9in /  1012.2hPa Calm   1mph /  1.6km/h 51% 0in /  0.0mm 0 W/m2
19:54 67.8 °F /  19.9 °C 49.6 °F /  9.8 °C 29.9in /  1012.2hPa Calm     52% 0in /  0.0mm 0 W/m2
19:59 67.5 °F /  19.7 °C 49.3 °F /  9.6 °C 29.9in /  1012.2hPa Calm   1mph /  1.6km/h 52% 0in /  0.0mm 0 W/m2
20:04 67.1 °F /  19.5 °C 49.5 °F /  9.7 °C 29.9in /  1012.2hPa Calm     53% 0in /  0.0mm 0 W/m2
20:09 66.7 °F /  19.3 °C 49.1 °F /  9.5 °C 29.9in /  1012.2hPa Calm   1mph /  1.6km/h 53% 0in /  0.0mm 0 W/m2
20:14 66.6 °F /  19.2 °C 49.5 °F /  9.7 °C 29.9in /  1012.2hPa Calm     54% 0in /  0.0mm 0 W/m2
20:19 66.4 °F /  19.1 °C 49.3 °F /  9.6 °C 29.9in /  1012.2hPa Calm   1mph /  1.6km/h 54% 0in /  0.0mm 0 W/m2
20:24 66 °F /  18.9 °C 49.5 °F /  9.7 °C 29.9in /  1012.2hPa Calm     55% 0in /  0.0mm 0 W/m2
20:29 65.7 °F /  18.7 °C 49.5 °F /  9.7 °C 29.9in /  1012.2hPa Calm     56% 0in /  0.0mm 0 W/m2
20:34 65.3 °F /  18.5 °C 49.3 °F /  9.6 °C 29.9in /  1012.2hPa Calm     56% 0in /  0.0mm 0 W/m2
20:39 64.9 °F /  18.3 °C 49.3 °F /  9.6 °C 29.9in /  1012.2hPa Calm     57% 0in /  0.0mm 0 W/m2
20:44 64.6 °F /  18.1 °C 49.5 °F /  9.7 °C 29.9in /  1012.5hPa Calm     58% 0in /  0.0mm 0 W/m2
20:49 64.2 °F /  17.9 °C 49.1 °F /  9.5 °C 29.9in /  1012.5hPa Calm     58% 0in /  0.0mm 0 W/m2
20:54 63.9 °F /  17.7 °C 49.3 °F /  9.6 °C 29.9in /  1012.2hPa Calm     59% 0in /  0.0mm 0 W/m2
20:59 63.5 °F /  17.5 °C 49.3 °F /  9.6 °C 29.9in /  1012.5hPa Calm     60% 0in /  0.0mm 0 W/m2
21:05 63.1 °F /  17.3 °C 49.1 °F /  9.5 °C 29.9in /  1012.5hPa Calm     60% 0in /  0.0mm 0 W/m2
21:10 63 °F /  17.2 °C 48.9 °F /  9.4 °C 29.9in /  1012.5hPa Calm     60% 0in /  0.0mm 0 W/m2
21:15 62.8 °F /  17.1 °C 49.1 °F /  9.5 °C 29.9in /  1012.5hPa Calm     61% 0in /  0.0mm 0 W/m2
21:20 62.4 °F /  16.9 °C 49.3 °F /  9.6 °C 29.9in /  1012.5hPa Calm     62% 0in /  0.0mm 0 W/m2
21:25 62.2 °F /  16.8 °C 49.1 °F /  9.5 °C 29.9in /  1012.5hPa Calm     62% 0in /  0.0mm 0 W/m2
21:30 62.1 °F /  16.7 °C 48.9 °F /  9.4 °C 29.9in /  1012.5hPa Calm     62% 0in /  0.0mm 0 W/m2
21:35 61.9 °F /  16.6 °C 49.1 °F /  9.5 °C 29.9in /  1012.5hPa Calm     63% 0in /  0.0mm 0 W/m2
21:40 61.5 °F /  16.4 °C 48.7 °F /  9.3 °C 29.9in /  1012.5hPa Calm     63% 0in /  0.0mm 0 W/m2
21:45 61.3 °F /  16.3 °C 49.1 °F /  9.5 °C 29.9in /  1012.5hPa Calm     64% 0in /  0.0mm 0 W/m2
21:50 61.2 °F /  16.2 °C 48.9 °F /  9.4 °C 29.9in /  1012.5hPa Calm     64% 0in /  0.0mm 0 W/m2
21:55 61 °F /  16.1 °C 48.7 °F /  9.3 °C 29.9in /  1012.5hPa Calm     64% 0in /  0.0mm 0 W/m2
22:00 60.8 °F /  16 °C 48.6 °F /  9.2 °C 29.9in /  1012.5hPa Calm     64% 0in /  0.0mm 0 W/m2
22:05 60.6 °F /  15.9 °C 48.7 °F /  9.3 °C 29.9in /  1012.5hPa Calm     65% 0in /  0.0mm 0 W/m2
22:10 60.4 °F /  15.8 °C 48.6 °F /  9.2 °C 29.9in /  1012.5hPa SSW 0.9mph /  1.4km/h 1mph /  1.6km/h 65% 0in /  0.0mm 0 W/m2
22:15 60.3 °F /  15.7 °C 48.9 °F /  9.4 °C 29.9in /  1012.5hPa Calm     66% 0in /  0.0mm 0 W/m2
22:20 60.3 °F /  15.7 °C 48.4 °F /  9.1 °C 29.9in /  1012.5hPa Calm     65% 0in /  0.0mm 0 W/m2
22:25 60.1 °F /  15.6 °C 48.7 °F /  9.3 °C 29.9in /  1012.5hPa Calm     66% 0in /  0.0mm 0 W/m2
22:30 59.9 °F /  15.5 °C 48.6 °F /  9.2 °C 29.9in /  1012.5hPa Calm     66% 0in /  0.0mm 0 W/m2
22:35 59.7 °F /  15.4 °C 48.7 °F /  9.3 °C 29.9in /  1012.5hPa Calm     67% 0in /  0.0mm 0 W/m2
22:40 59.5 °F /  15.3 °C 48.6 °F /  9.2 °C 29.9in /  1012.5hPa Calm     67% 0in /  0.0mm 0 W/m2
22:45 59.5 °F /  15.3 °C 48.6 °F /  9.2 °C 29.9in /  1012.5hPa Calm     67% 0in /  0.0mm 0 W/m2
22:50 59.4 °F /  15.2 °C 48.4 °F /  9.1 °C 29.9in /  1012.5hPa Calm     67% 0in /  0.0mm 0 W/m2
22:55 59.2 °F /  15.1 °C 48.2 °F /  9 °C 29.9in /  1012.5hPa Calm     67% 0in /  0.0mm 0 W/m2
23:00 59.2 °F /  15.1 °C 48.6 °F /  9.2 °C 29.9in /  1012.5hPa Calm     68% 0in /  0.0mm 0 W/m2
23:05 58.8 °F /  14.9 °C 48.2 °F /  9 °C 29.9in /  1012.5hPa Calm     68% 0in /  0.0mm 0 W/m2
23:10 58.6 °F /  14.8 °C 48.2 °F /  9 °C 29.9in /  1012.5hPa Calm     68% 0in /  0.0mm 0 W/m2
23:15 58.3 °F /  14.6 °C 48.2 °F /  9 °C 29.9in /  1012.5hPa Calm     69% 0in /  0.0mm 0 W/m2
23:20 58.1 °F /  14.5 °C 48.4 °F /  9.1 °C 29.9in /  1012.5hPa Calm     70% 0in /  0.0mm 0 W/m2
23:25 57.9 °F /  14.4 °C 48.2 °F /  9 °C 29.9in /  1012.5hPa Calm     70% 0in /  0.0mm 0 W/m2
23:30 57.7 °F /  14.3 °C 48.4 °F /  9.1 °C 29.9in /  1012.5hPa Calm     71% 0in /  0.0mm 0 W/m2
23:35 57.6 °F /  14.2 °C 48.2 °F /  9 °C 29.9in /  1012.5hPa Calm     71% 0in /  0.0mm 0 W/m2
Juneau County Weather
Compliments of Weather Underground - 4 mb